Time;durP1;ratioP1;P1;durP2;ratioP2;P2;SDS_P1;SDS_P2;PMS_P1;PMS_P2;Temp;Humidity;BMP_temperature;BMP_pressure;BME280_temperature;BME280_humidity;BME280_pressure;Samples;Min_cycle;Max_cycle;Signal;HPM_P1;HPM_P2
2022/06/28 00:00:17;;;;;;;16.42;14.55;;;;;;;21.43;64.58;99417.38;5034885;28;20045;-62
2022/06/28 00:02:44;;;;;;;15.13;13.63;;;;;;;21.39;64.92;99419.09;5033608;28;20088;-62
2022/06/28 00:05:10;;;;;;;17.02;14.88;;;;;;;21.37;64.88;99414.00;5034748;28;20048;-62
2022/06/28 00:07:36;;;;;;;15.60;14.00;;;;;;;21.32;65.19;99414.91;5033690;28;20107;-62
2022/06/28 00:10:03;;;;;;;17.30;14.80;;;;;;;21.27;65.43;99414.25;5033437;28;20045;-61
2022/06/28 00:12:29;;;;;;;16.45;14.68;;;;;;;21.25;65.56;99417.22;5034626;28;20144;-63
2022/06/28 00:17:39;;;;;;;15.40;14.00;;;;;;;21.20;65.85;99425.44;5034986;28;20044;-62
2022/06/28 00:20:05;;;;;;;16.42;14.70;;;;;;;21.15;66.13;99430.97;5033553;28;20037;-62
2022/06/28 00:22:31;;;;;;;16.50;14.80;;;;;;;21.11;66.25;99429.97;5033251;28;20507;-62
2022/06/28 00:24:56;;;;;;;16.35;14.75;;;;;;;21.10;66.42;99439.16;5034657;28;20048;-62
2022/06/28 00:27:22;;;;;;;16.67;14.88;;;;;;;21.06;66.48;99433.59;5034669;28;20041;-61
2022/06/28 00:29:48;;;;;;;16.50;14.60;;;;;;;21.03;66.83;99442.28;5033013;28;20056;-61
2022/06/28 00:32:14;;;;;;;17.05;15.32;;;;;;;21.03;66.73;99446.88;5033091;28;20049;-62
2022/06/28 00:34:39;;;;;;;17.35;15.55;;;;;;;20.99;66.94;99445.91;5033236;28;20041;-62
2022/06/28 00:37:05;;;;;;;15.63;14.13;;;;;;;20.97;67.12;99446.22;5033091;28;20132;-64
2022/06/28 00:39:31;;;;;;;16.85;14.95;;;;;;;20.95;67.25;99440.31;5032839;28;20041;-62
2022/06/28 00:41:56;;;;;;;17.10;15.32;;;;;;;20.94;67.32;99444.13;5034249;28;20053;-62
2022/06/28 00:44:23;;;;;;;15.90;14.40;;;;;;;20.91;67.36;99438.53;5016319;28;20052;-62
2022/06/28 00:46:49;;;;;;;17.10;15.20;;;;;;;20.88;67.51;99445.31;5034095;28;20052;-63
2022/06/28 00:49:14;;;;;;;19.00;14.93;;;;;;;20.85;67.64;99440.53;5032664;28;20049;-62
2022/06/28 00:51:41;;;;;;;16.95;15.25;;;;;;;20.89;67.32;99438.84;5034138;28;20037;-62
2022/06/28 00:54:07;;;;;;;17.38;15.65;;;;;;;20.91;67.35;99442.00;5032152;28;20053;-62
2022/06/28 00:56:33;;;;;;;17.00;15.10;;;;;;;20.96;67.12;99439.22;5032549;28;20049;-62
2022/06/28 00:58:59;;;;;;;17.23;15.40;;;;;;;21.00;67.14;99442.91;5032605;28;20044;-62
2022/06/28 01:01:26;;;;;;;16.77;14.40;;;;;;;21.02;66.94;99447.97;5016234;28;20046;-63
2022/06/28 01:03:54;;;;;;;18.20;16.30;;;;;;;21.00;66.92;99453.69;5032490;28;20049;-62
2022/06/28 01:06:20;;;;;;;16.77;15.18;;;;;;;21.00;66.99;99458.25;5016137;28;20045;-62
2022/06/28 01:08:47;;;;;;;17.23;15.48;;;;;;;21.02;66.92;99451.47;5032305;28;20068;-62
2022/06/28 01:11:19;;;;;;;17.63;15.88;;;;;;;21.07;66.52;99442.47;5032626;28;20045;-62
2022/06/28 01:13:59;;;;;;;17.58;15.43;;;;;;;21.18;66.40;99451.09;5032241;28;20144;-61
2022/06/28 01:16:27;;;;;;;17.13;15.32;;;;;;;21.25;66.07;99457.66;5015972;28;20087;-64
2022/06/28 01:19:07;;;;;;;16.20;14.50;;;;;;;21.34;65.79;99455.03;5032151;28;20045;-62
2022/06/28 01:21:37;;;;;;;18.65;15.00;;;;;;;21.44;65.21;99456.69;5032348;28;20042;-61
2022/06/28 01:24:03;;;;;;;16.95;15.35;;;;;;;21.54;65.04;99449.16;5032153;28;20037;-62
2022/06/28 01:26:46;;;;;;;16.77;15.00;;;;;;;21.65;64.52;99452.41;5032158;28;20071;-61
2022/06/28 01:29:14;;;;;;;17.20;15.43;;;;;;;21.74;64.34;99463.25;5032132;28;20045;-62
2022/06/28 01:32:00;;;;;;;17.40;15.57;;;;;;;21.82;64.01;99464.38;5018250;28;20083;-62
2022/06/28 01:34:27;;;;;;;19.15;15.75;;;;;;;21.94;63.81;99470.00;5015636;28;20080;-62
2022/06/28 01:36:53;;;;;;;16.58;14.85;;;;;;;22.00;63.11;99461.47;4999147;28;20077;-62
2022/06/28 01:39:20;;;;;;;17.27;15.45;;;;;;;22.08;62.93;99465.28;5031813;28;20049;-62
2022/06/28 01:41:49;;;;;;;15.95;14.45;;;;;;;22.23;62.53;99466.81;5031738;28;20057;-63
2022/06/28 01:44:19;;;;;;;17.13;15.35;;;;;;;22.37;61.71;99464.78;5033180;28;20120;-61
2022/06/28 01:46:59;;;;;;;16.23;14.30;;;;;;;22.58;61.20;99475.78;5031621;28;20068;-62
2022/06/28 01:49:45;;;;;;;16.48;14.63;;;;;;;22.77;60.29;99472.03;5031588;28;20053;-62
2022/06/28 01:52:11;;;;;;;16.77;15.13;;;;;;;22.89;59.88;99483.78;5033063;28;20041;-62
2022/06/28 01:54:37;;;;;;;16.42;14.60;;;;;;;22.99;59.68;99480.00;5031732;28;20542;-62
2022/06/28 01:57:03;;;;;;;17.27;15.25;;;;;;;23.17;59.13;99475.38;5032860;28;20042;-61
2022/06/28 01:59:38;;;;;;;17.50;15.23;;;;;;;23.37;58.70;99484.75;5031359;28;20120;-61
2022/06/28 02:02:11;;;;;;;16.92;14.38;;;;;;;23.47;58.24;99484.44;5031424;28;20521;-61
2022/06/28 02:04:57;;;;;;;16.15;14.45;;;;;;;23.47;57.59;99486.34;5031551;28;20103;-61
2022/06/28 02:07:26;;;;;;;15.45;13.88;;;;;;;23.50;57.44;99483.00;5015485;28;20049;-63
2022/06/28 02:09:52;;;;;;;16.50;14.80;;;;;;;23.69;57.11;99490.78;5014717;28;20049;-62
2022/06/28 02:12:18;;;;;;;16.15;14.60;;;;;;;23.77;56.62;99485.38;5031078;28;20056;-62
2022/06/28 02:14:44;;;;;;;15.85;14.10;;;;;;;23.81;56.59;99485.50;5014717;28;20041;-61
2022/06/28 02:17:11;;;;;;;15.65;14.10;;;;;;;23.69;56.55;99480.72;5031153;28;20587;-62
2022/06/28 02:19:37;;;;;;;15.40;13.80;;;;;;;23.53;56.92;99490.47;5031202;28;20462;-63
2022/06/28 02:22:05;;;;;;;16.02;14.35;;;;;;;23.44;57.41;99492.38;5031057;28;20045;-62
2022/06/28 02:24:31;;;;;;;15.25;13.75;;;;;;;23.71;56.63;99493.97;5030892;28;20239;-63
2022/06/28 02:26:57;;;;;;;15.30;13.73;;;;;;;24.16;56.02;99504.34;5014540;28;20053;-62
2022/06/28 02:29:23;;;;;;;16.40;14.30;;;;;;;24.34;55.30;99497.72;5030701;28;20095;-63
2022/06/28 02:31:48;;;;;;;16.05;14.48;;;;;;;24.05;55.71;99503.09;5030760;28;20041;-63
2022/06/28 02:40:21;;;;;;;16.98;15.18;;;;;;;23.84;56.91;99508.44;5030731;28;20045;-62
2022/06/28 02:42:29;;;;;;;16.27;14.57;;;;;;;24.78;54.55;99509.13;5031930;28;20045;-62
2022/06/28 02:44:55;;;;;;;15.82;14.32;;;;;;;25.02;53.91;99529.41;5031944;28;20033;-62
2022/06/28 02:47:20;;;;;;;16.10;14.48;;;;;;;25.13;53.39;99520.56;5031755;28;20053;-62
2022/06/28 02:49:46;;;;;;;20.23;14.88;;;;;;;24.82;53.66;99514.69;5030624;28;20045;-61
2022/06/28 02:52:11;;;;;;;15.63;14.10;;;;;;;24.41;54.69;99527.00;5013977;28;20052;-62
2022/06/28 02:54:37;;;;;;;17.00;14.50;;;;;;;23.85;56.36;99529.75;5030287;28;20037;-63
2022/06/28 02:57:03;;;;;;;17.23;15.38;;;;;;;23.80;56.76;99521.81;5030544;28;20056;-63
2022/06/28 02:59:28;;;;;;;15.50;13.57;;;;;;;23.89;56.53;99521.81;5030346;28;20041;-63
2022/06/28 03:01:55;;;;;;;17.70;15.25;;;;;;;23.76;56.96;99510.03;5031701;28;20049;-61
2022/06/28 03:04:21;;;;;;;17.00;15.20;;;;;;;23.65;56.96;99520.38;5013925;28;20042;-63
2022/06/28 03:06:46;;;;;;;15.45;13.85;;;;;;;23.46;57.49;99519.94;5030461;28;20087;-62
2022/06/28 03:09:12;;;;;;;16.30;14.40;;;;;;;23.25;58.17;99530.59;5030012;28;20045;-62
2022/06/28 03:11:38;;;;;;;15.23;12.77;;;;;;;23.13;58.20;99534.72;5030259;28;20049;-62
2022/06/28 03:14:04;;;;;;;14.80;13.23;;;;;;;23.06;58.45;99536.28;5030354;28;20122;-62
2022/06/28 03:16:29;;;;;;;14.20;12.75;;;;;;;23.63;56.70;99525.31;5029843;28;20052;-63
2022/06/28 03:18:55;;;;;;;13.90;12.20;;;;;;;23.96;54.84;99533.72;5031373;28;20446;-62
2022/06/28 03:21:21;;;;;;;15.68;12.35;;;;;;;24.25;54.91;99532.97;5031545;28;20044;-62
2022/06/28 03:23:47;;;;;;;15.23;11.98;;;;;;;24.62;53.38;99521.66;5030025;28;20080;-63
2022/06/28 03:26:13;;;;;;;12.90;11.55;;;;;;;24.90;51.74;99546.38;5030018;28;20037;-63
2022/06/28 03:28:38;;;;;;;13.57;12.10;;;;;;;25.24;50.89;99542.66;5029758;28;20118;-63
2022/06/28 03:31:05;;;;;;;12.65;11.48;;;;;;;25.54;50.73;99537.94;5013254;28;20042;-64
2022/06/28 03:33:30;;;;;;;12.95;11.57;;;;;;;25.66;50.10;99520.91;5029730;28;20049;-63
2022/06/28 03:35:56;;;;;;;12.85;11.55;;;;;;;25.86;49.47;99534.78;5029664;28;20479;-63
2022/06/28 03:38:29;;;;;;;14.55;11.50;;;;;;;25.83;49.16;99534.31;5013201;28;20049;-64
2022/06/28 03:41:22;;;;;;;13.70;12.38;;;;;;;25.95;49.21;99535.50;5031052;28;20037;-62
2022/06/28 03:43:52;;;;;;;19.83;12.07;;;;;;;26.02;48.98;99543.84;5029393;28;20041;-63
2022/06/28 03:46:19;;;;;;;12.52;11.32;;;;;;;26.04;49.29;99536.19;5029408;28;20049;-63
2022/06/28 03:48:51;;;;;;;14.00;11.77;;;;;;;26.28;48.87;99543.56;5029252;28;20041;-63
2022/06/28 03:51:19;;;;;;;13.07;11.77;;;;;;;26.54;47.73;99545.19;5030627;28;20076;-63
2022/06/28 03:54:05;;;;;;;12.30;10.93;;;;;;;26.38;47.59;99548.53;5030374;28;20527;-62
2022/06/28 03:56:37;;;;;;;17.02;12.18;;;;;;;25.96;48.83;99551.44;5029440;28;20052;-63
2022/06/28 03:59:02;;;;;;;13.82;12.38;;;;;;;25.47;49.84;99545.00;5029453;28;20041;-62
2022/06/28 04:01:28;;;;;;;12.32;11.13;;;;;;;24.78;51.54;99555.22;5029566;28;20045;-63
2022/06/28 04:03:54;;;;;;;12.73;11.43;;;;;;;24.28;52.93;99572.16;5013275;28;20042;-62
2022/06/28 04:06:20;;;;;;;12.38;11.27;;;;;;;23.84;54.00;99565.28;5029366;28;20037;-63
2022/06/28 04:08:47;;;;;;;19.92;12.30;;;;;;;23.51;54.89;99573.88;5029192;28;20566;-63
2022/06/28 04:11:16;;;;;;;14.23;11.70;;;;;;;23.36;55.71;99561.63;5013005;28;20136;-62
2022/06/28 04:13:46;;;;;;;13.52;12.23;;;;;;;23.11;56.28;99572.09;5030721;28;20053;-64
2022/06/28 04:16:13;;;;;;;13.37;11.77;;;;;;;23.10;56.28;99559.69;5029607;28;20071;-63
2022/06/28 04:18:41;;;;;;;12.95;11.27;;;;;;;23.03;56.71;99580.19;5029752;28;20726;-63
2022/06/28 04:21:27;;;;;;;15.52;11.73;;;;;;;23.05;57.27;99567.94;5030513;28;20491;-62
2022/06/28 04:24:13;;;;;;;12.55;11.32;;;;;;;23.63;55.53;99555.09;5030357;28;20053;-63
2022/06/28 04:26:59;;;;;;;13.30;12.00;;;;;;;23.99;54.67;99572.88;5051311;28;20159;-62
2022/06/28 04:29:27;;;;;;;14.07;12.73;;;;;;;24.08;54.43;99570.94;5054856;28;20143;-62
2022/06/28 04:31:53;;;;;;;13.27;11.63;;;;;;;24.32;53.94;99561.47;5054926;28;20080;-63
2022/06/28 04:34:19;;;;;;;13.52;11.60;;;;;;;24.46;53.15;99551.25;5071721;28;20461;-63
2022/06/28 04:36:49;;;;;;;13.15;11.82;;;;;;;24.62;52.78;99560.41;5054682;28;20524;-63
2022/06/28 04:39:16;;;;;;;13.02;11.73;;;;;;;24.89;51.91;99564.56;5071606;28;20051;-63
2022/06/28 04:41:49;;;;;;;15.13;11.48;;;;;;;25.29;51.16;99560.66;5054729;28;20147;-63
2022/06/28 04:44:21;;;;;;;12.80;11.60;;;;;;;25.56;50.92;99576.41;5071547;28;20033;-63
2022/06/28 04:46:52;;;;;;;14.10;11.45;;;;;;;25.82;50.01;99573.47;5054809;28;20064;-63
2022/06/28 04:49:20;;;;;;;12.32;10.45;;;;;;;26.29;48.45;99570.38;5071371;28;20051;-63
2022/06/28 04:51:51;;;;;;;13.20;11.25;;;;;;;26.13;48.20;99585.78;5054624;28;20052;-63
2022/06/28 04:54:26;;;;;;;14.38;10.63;;;;;;;25.56;49.57;99579.13;5054693;28;20147;-62
2022/06/28 04:57:15;;;;;;;12.20;10.95;;;;;;;25.10;50.20;99580.88;5054241;28;20088;-63
2022/06/28 04:59:46;;;;;;;17.45;10.52;;;;;;;24.70;50.72;99583.94;5015843;28;20056;-63
2022/06/28 05:02:36;;;;;;;10.75;9.40;;;;;;;24.44;51.38;99575.16;5034012;28;20056;-63
2022/06/28 05:05:06;;;;;;;11.23;10.13;;;;;;;24.32;51.65;99573.09;5016572;28;20045;-64
2022/06/28 05:07:37;;;;;;;10.60;9.63;;;;;;;24.53;51.13;99578.66;5033717;28;20099;-63
2022/06/28 05:10:08;;;;;;;9.52;8.63;;;;;;;24.78;49.89;99576.13;5016458;28;20053;-63
2022/06/28 05:12:37;;;;;;;9.98;9.07;;;;;;;24.59;49.82;99579.22;5032108;28;20049;-62
2022/06/28 05:15:04;;;;;;;12.25;10.35;;;;;;;24.49;50.71;99583.09;4983196;28;20446;-63
2022/06/28 05:17:49;;;;;;;10.18;9.23;;;;;;;24.26;50.93;99599.56;5033498;28;20080;-63
2022/06/28 05:20:15;;;;;;;10.93;8.90;;;;;;;24.21;51.07;99586.22;5032009;28;20503;-63
2022/06/28 05:22:41;;;;;;;11.38;9.27;;;;;;;24.14;50.37;99590.53;5033447;28;20069;-63
2022/06/28 05:25:32;;;;;;;9.48;8.50;;;;;;;24.09;50.34;99591.50;5033040;28;20056;-63
2022/06/28 05:27:58;;;;;;;9.35;8.45;;;;;;;24.21;49.91;99586.22;5032113;28;20041;-62
2022/06/28 05:30:23;;;;;;;10.93;8.90;;;;;;;24.09;50.70;99599.63;5031837;28;20038;-62
2022/06/28 05:32:49;;;;;;;10.95;9.23;;;;;;;23.88;51.02;99590.56;4998999;28;20044;-62
2022/06/28 05:35:15;;;;;;;11.43;9.25;;;;;;;23.92;50.71;99591.53;5031694;28;20095;-63
2022/06/28 05:37:41;;;;;;;9.73;8.73;;;;;;;23.77;51.56;99590.91;5033253;28;20483;-61
2022/06/28 05:40:07;;;;;;;13.57;9.27;;;;;;;23.80;51.79;99600.31;5031596;28;20061;-63
2022/06/28 05:42:33;;;;;;;12.35;9.27;;;;;;;23.83;51.80;99612.41;5031465;28;20050;-62
2022/06/28 05:44:59;;;;;;;12.65;9.50;;;;;;;23.90;52.01;99589.16;5031784;28;20045;-63
2022/06/28 05:47:25;;;;;;;14.88;9.25;;;;;;;24.00;51.52;99583.41;5031660;28;20072;-63
2022/06/28 05:49:51;;;;;;;10.00;9.10;;;;;;;23.91;52.07;99593.44;5014629;28;20042;-62
2022/06/28 05:52:17;;;;;;;10.25;9.15;;;;;;;23.87;51.91;99595.19;5031634;28;20099;-62
2022/06/28 05:54:42;;;;;;;11.13;10.00;;;;;;;23.84;51.71;99595.06;5031299;28;20124;-63
2022/06/28 05:57:08;;;;;;;9.35;8.40;;;;;;;23.76;51.03;99586.59;5032568;28;20124;-62
2022/06/28 05:59:34;;;;;;;10.10;8.43;;;;;;;23.69;51.24;99597.09;5030703;28;20095;-62
2022/06/28 06:02:00;;;;;;;12.50;8.68;;;;;;;23.69;50.95;99596.31;5014548;28;20456;-61
2022/06/28 06:04:26;;;;;;;10.93;8.60;;;;;;;23.68;51.33;99592.81;5031044;28;20045;-63
2022/06/28 06:06:53;;;;;;;11.77;7.65;;;;;;;23.77;49.23;99603.66;5030899;28;20050;-67
2022/06/28 06:09:19;;;;;;;9.95;7.03;;;;;;;23.58;47.87;99604.72;5032179;28;20482;-61
2022/06/28 06:11:47;;;;;;;11.18;6.70;;;;;;;23.39;47.78;99608.88;5031099;28;20542;-63
2022/06/28 06:14:15;;;;;;;7.75;6.97;;;;;;;23.27;48.72;99598.69;5030887;28;20105;-63
2022/06/28 06:16:41;;;;;;;11.15;7.50;;;;;;;23.31;48.52;99613.97;5030773;28;20356;-63
2022/06/28 06:19:06;;;;;;;8.60;7.10;;;;;;;23.44;49.26;99590.59;5013931;28;20090;-63
2022/06/28 06:21:32;;;;;;;13.63;7.53;;;;;;;23.55;48.79;99589.13;5030476;28;20045;-63
2022/06/28 06:23:58;;;;;;;8.48;6.70;;;;;;;23.49;46.97;99593.13;5030721;28;20180;-62
2022/06/28 06:26:31;;;;;;;7.45;6.13;;;;;;;23.41;46.13;99593.91;5031859;28;20078;-61
2022/06/28 06:28:57;;;;;;;6.63;6.03;;;;;;;23.33;47.42;99595.50;5030219;28;20144;-63
2022/06/28 06:31:22;;;;;;;12.43;6.93;;;;;;;23.42;48.27;99582.00;5029952;28;20037;-63
2022/06/28 06:33:52;;;;;;;8.30;6.53;;;;;;;23.48;48.12;99588.03;5030946;28;20041;-63
2022/06/28 06:36:41;;;;;;;7.65;6.82;;;;;;;23.59;47.70;99600.16;5030980;28;20065;-62
2022/06/28 06:39:08;;;;;;;7.22;6.53;;;;;;;23.54;47.17;99600.28;5029916;28;20164;-61
2022/06/28 06:41:35;;;;;;;12.57;6.65;;;;;;;23.68;48.23;99595.53;5029894;28;20056;-62
2022/06/28 06:44:02;;;;;;;10.70;7.05;;;;;;;23.75;46.45;99592.34;5030215;28;20049;-62
2022/06/28 06:46:32;;;;;;;8.38;5.78;;;;;;;23.83;46.08;99607.00;5029834;28;20052;-63
2022/06/28 06:48:58;;;;;;;8.07;5.90;;;;;;;23.86;45.82;99592.81;4997149;28;20411;-62
2022/06/28 06:51:24;;;;;;;7.10;6.05;;;;;;;23.85;45.92;99604.75;5029588;28;20124;-62
2022/06/28 06:53:51;;;;;;;10.07;6.60;;;;;;;23.79;45.82;99601.41;5030415;28;20168;-62
2022/06/28 06:56:17;;;;;;;10.60;6.43;;;;;;;23.60;45.74;99609.06;5030038;28;20098;-63
2022/06/28 06:58:43;;;;;;;6.35;5.70;;;;;;;23.57;46.42;99591.53;5030304;28;20418;-63
2022/06/28 07:01:09;;;;;;;8.63;6.20;;;;;;;23.63;46.24;99590.25;5031142;28;20068;-62
2022/06/28 07:03:35;;;;;;;7.75;6.18;;;;;;;23.67;46.08;99591.19;5030005;28;20124;-62
2022/06/28 07:06:01;;;;;;;8.10;5.53;;;;;;;23.60;46.40;99598.22;5030385;28;20041;-64
2022/06/28 07:08:27;;;;;;;6.55;5.75;;;;;;;23.64;45.94;99586.44;5030006;28;20060;-62
2022/06/28 07:10:59;;;;;;;7.18;5.80;;;;;;;23.62;45.25;99602.22;5030253;28;20073;-63
2022/06/28 07:13:24;;;;;;;6.80;5.13;;;;;;;23.53;44.98;99604.91;5029700;28;20111;-62
2022/06/28 07:15:51;;;;;;;6.88;6.22;;;;;;;23.67;45.36;99596.63;5029764;28;20048;-64
2022/06/28 07:18:21;;;;;;;8.50;6.00;;;;;;;23.83;44.87;99605.09;5029606;28;20404;-63
2022/06/28 07:20:48;;;;;;;6.28;5.38;;;;;;;23.89;44.99;99600.31;5029981;28;20037;-63
2022/06/28 07:23:13;;;;;;;6.43;5.47;;;;;;;23.75;44.15;99609.38;5031479;28;20042;-62
2022/06/28 07:25:40;;;;;;;8.32;5.55;;;;;;;23.79;44.36;99606.81;5030192;28;20397;-62
2022/06/28 07:28:08;;;;;;;6.50;5.45;;;;;;;23.80;44.38;99622.75;5030010;28;20072;-62
2022/06/28 07:30:34;;;;;;;8.00;5.53;;;;;;;23.93;43.88;99617.50;5029932;28;20049;-63
2022/06/28 07:33:00;;;;;;;9.07;5.80;;;;;;;24.07;43.59;99618.09;5029937;28;20099;-63
2022/06/28 07:35:26;;;;;;;5.97;5.13;;;;;;;23.96;43.69;99633.88;5029925;28;20128;-63
2022/06/28 07:37:53;;;;;;;5.40;5.00;;;;;;;24.02;43.83;99624.47;5029806;28;20046;-62
2022/06/28 07:40:39;;;;;;;6.93;5.60;;;;;;;23.96;43.37;99628.47;5030772;28;20045;-63
2022/06/28 07:43:31;;;;;;;7.65;5.13;;;;;;;23.99;43.66;99637.88;5030624;28;20144;-64
2022/06/28 07:46:09;;;;;;;6.75;4.85;;;;;;;23.95;43.66;99620.69;5015134;28;20041;-63
2022/06/28 07:48:35;;;;;;;8.57;5.05;;;;;;;23.84;42.84;99635.66;5029463;28;20080;-63
2022/06/28 07:53:50;;;;;;;8.23;5.30;;;;;;;23.81;42.72;99626.25;5029586;28;20041;-62
2022/06/28 07:56:39;;;;;;;8.80;5.57;;;;;;;23.74;42.76;99642.19;5039072;28;20491;-62
2022/06/28 07:59:08;;;;;;;5.75;4.40;;;;;;;23.77;43.02;99655.88;5013748;28;20045;-63
2022/06/28 08:01:35;;;;;;;7.43;4.72;;;;;;;23.85;42.45;99651.56;5029355;28;20129;-62
2022/06/28 08:04:07;;;;;;;5.35;4.22;;;;;;;23.86;41.64;99645.06;5032690;28;20095;-62
2022/06/28 08:06:34;;;;;;;10.05;4.95;;;;;;;23.86;41.85;99636.94;5034515;28;20446;-63
2022/06/28 08:09:00;;;;;;;4.68;4.20;;;;;;;23.85;40.80;99645.34;5033163;28;20049;-62
2022/06/28 08:11:26;;;;;;;5.70;4.30;;;;;;;23.80;40.21;99651.75;5033342;28;20652;-63
2022/06/28 08:13:56;;;;;;;10.48;4.30;;;;;;;23.82;40.54;99652.19;5032915;28;20049;-63
2022/06/28 08:16:23;;;;;;;7.07;4.40;;;;;;;23.79;39.55;99642.81;5033319;28;20091;-63
2022/06/28 08:18:50;;;;;;;5.18;4.07;;;;;;;23.86;39.21;99649.66;5032994;28;20037;-62
2022/06/28 08:21:16;;;;;;;5.63;4.10;;;;;;;23.91;40.07;99663.03;5033064;28;20128;-60
2022/06/28 08:23:42;;;;;;;5.35;3.50;;;;;;;23.89;38.90;99662.56;5033047;28;20461;-61
2022/06/28 08:26:08;;;;;;;6.38;3.63;;;;;;;23.97;39.39;99662.56;5033057;28;20184;-62
2022/06/28 08:28:34;;;;;;;7.03;3.65;;;;;;;24.05;38.85;99654.75;5032855;28;20099;-63
2022/06/28 08:31:00;;;;;;;4.25;3.47;;;;;;;24.06;38.02;99659.03;5032970;28;20037;-64
2022/06/28 08:33:26;;;;;;;5.72;3.33;;;;;;;23.99;38.17;99648.69;5031589;28;20455;-63
2022/06/28 08:35:51;;;;;;;3.78;3.00;;;;;;;23.91;37.25;99669.22;5015136;28;20598;-66
2022/06/28 08:38:17;;;;;;;3.58;3.15;;;;;;;23.98;37.03;99644.41;5031622;28;20620;-62
2022/06/28 08:40:43;;;;;;;8.38;3.10;;;;;;;24.00;36.57;99655.69;5015101;28;20144;-63
2022/06/28 08:43:09;;;;;;;4.68;3.40;;;;;;;24.00;37.76;99655.69;5015143;28;20053;-62
2022/06/28 08:45:36;;;;;;;6.47;2.90;;;;;;;24.11;37.20;99659.66;5015020;28;20047;-63
2022/06/28 08:48:13;;;;;;;5.32;2.90;;;;;;;24.09;36.62;99666.50;5031473;28;20058;-63
2022/06/28 08:50:41;;;;;;;4.68;2.70;;;;;;;24.11;35.83;99656.94;5031378;28;20056;-64
2022/06/28 08:53:09;;;;;;;7.75;3.50;;;;;;;24.09;37.08;99653.78;4982230;28;20058;-63
2022/06/28 08:55:36;;;;;;;3.95;2.90;;;;;;;24.05;36.08;99649.31;5031241;28;20045;-62
2022/06/28 08:58:05;;;;;;;5.30;2.90;;;;;;;24.07;36.11;99671.47;5031367;28;20045;-63
2022/06/28 09:00:31;;;;;;;3.90;3.03;;;;;;;24.05;36.97;99660.16;5031325;28;20045;-63
2022/06/28 09:02:57;;;;;;;4.05;2.88;;;;;;;23.97;37.24;99689.63;5031044;28;20153;-63
2022/06/28 09:05:24;;;;;;;5.10;3.08;;;;;;;23.87;36.93;99672.91;5033241;28;20041;-63
2022/06/28 09:07:58;;;;;;;4.43;2.60;;;;;;;23.76;36.99;99686.75;5016166;28;20068;-63
2022/06/28 09:10:24;;;;;;;4.15;2.63;;;;;;;23.74;36.93;99663.84;5015564;28;20037;-62
2022/06/28 09:13:04;;;;;;;4.28;2.72;;;;;;;23.64;36.80;99659.50;5014999;28;20104;-61
2022/06/28 09:15:45;;;;;;;8.10;3.20;;;;;;;23.80;37.82;99671.47;5033177;28;20400;-64
2022/06/28 09:18:10;;;;;;;6.35;2.42;;;;;;;23.87;33.99;99667.50;5032244;28;20095;-64
2022/06/28 09:20:38;;;;;;;4.50;2.55;;;;;;;23.83;34.29;99658.44;5033413;28;20704;-64
2022/06/28 09:23:04;;;;;;;4.40;2.38;;;;;;;23.81;34.57;99664.16;5033362;28;20049;-63
2022/06/28 09:25:31;;;;;;;6.00;2.20;;;;;;;23.77;34.11;99661.28;5032943;28;20075;-63
2022/06/28 09:28:02;;;;;;;4.30;2.30;;;;;;;23.79;33.59;99660.97;5033253;28;20060;-63
2022/06/28 09:30:30;;;;;;;3.15;2.10;;;;;;;23.83;34.55;99661.94;5031830;28;20041;-61
2022/06/28 09:32:57;;;;;;;3.00;2.20;;;;;;;23.94;34.23;99654.25;5035250;28;20054;-62
2022/06/28 09:35:26;;;;;;;5.07;2.13;;;;;;;23.97;34.70;99669.88;5031981;28;20509;-63
2022/06/28 09:37:55;;;;;;;4.32;2.88;;;;;;;24.06;34.57;99662.56;5031884;28;20045;-63
2022/06/28 09:40:29;;;;;;;3.03;2.13;;;;;;;24.00;33.26;99670.03;5032897;28;20311;-63
2022/06/28 09:43:12;;;;;;;4.20;1.95;;;;;;;24.03;34.30;99657.75;5033361;28;20561;-63
2022/06/28 09:45:43;;;;;;;3.90;2.63;;;;;;;24.02;34.09;99658.88;5033110;28;20049;-63
2022/06/28 09:48:20;;;;;;;4.35;2.58;;;;;;;24.09;34.66;99661.09;5033286;28;20084;-63
2022/06/28 09:50:47;;;;;;;5.65;2.47;;;;;;;23.99;32.71;99673.06;5032963;28;20074;-65
2022/06/28 09:53:16;;;;;;;5.10;2.08;;;;;;;23.97;32.13;99676.09;5014849;28;20499;-63
2022/06/28 09:55:42;;;;;;;5.57;1.67;;;;;;;23.86;31.93;99671.34;5031782;28;20056;-63
2022/06/28 09:58:08;;;;;;;4.43;2.08;;;;;;;23.87;31.20;99665.59;5033050;28;20053;-64
2022/06/28 10:00:39;;;;;;;4.20;2.00;;;;;;;23.81;30.23;99672.28;5033266;28;20175;-64
2022/06/28 10:03:05;;;;;;;4.10;1.67;;;;;;;23.87;30.94;99667.50;5031538;28;20045;-62
2022/06/28 10:05:31;;;;;;;3.42;2.08;;;;;;;23.87;31.05;99671.00;5032377;28;20041;-62
2022/06/28 10:07:58;;;;;;;4.03;1.80;;;;;;;23.80;32.49;99665.28;5030970;28;20331;-63
2022/06/28 10:10:24;;;;;;;2.55;2.00;;;;;;;23.92;32.63;99659.22;5031036;28;20037;-63
2022/06/28 10:16:21;;;;;;;4.30;1.90;;;;;;;23.90;30.73;99661.44;5069654;28;20037;-61
2022/06/28 10:18:48;;;;;;;3.67;1.55;;;;;;;23.86;31.17;99655.09;5039382;28;20597;-64
2022/06/28 10:21:14;;;;;;;1.77;1.60;;;;;;;23.84;31.96;99660.00;5045028;28;20050;-65
2022/06/28 10:23:45;;;;;;;2.17;1.50;;;;;;;23.80;30.67;99657.94;5030562;28;20148;-63
2022/06/28 10:26:14;;;;;;;1.80;1.70;;;;;;;23.84;31.00;99652.69;5030064;28;20037;-63
2022/06/28 10:29:07;;;;;;;3.50;1.70;;;;;;;23.89;30.64;99662.56;5030467;28;20120;-64
2022/06/28 10:31:39;;;;;;;2.25;1.42;;;;;;;23.89;29.23;99659.88;5031836;28;20057;-62
2022/06/28 10:34:08;;;;;;;2.15;1.80;;;;;;;23.85;29.18;99656.97;5031954;28;20053;-64
2022/06/28 10:36:51;;;;;;;2.88;1.55;;;;;;;23.91;31.41;99654.91;5031757;28;20433;-64
2022/06/28 10:39:18;;;;;;;3.75;1.60;;;;;;;23.92;32.56;99668.13;5031796;28;20053;-63
2022/06/28 10:42:06;;;;;;;3.22;1.70;;;;;;;23.91;32.49;99657.63;5031930;28;20182;-63
2022/06/28 10:44:33;;;;;;;2.78;1.85;;;;;;;23.85;32.33;99650.78;5030555;28;20598;-64
2022/06/28 10:47:06;;;;;;;3.13;1.83;;;;;;;23.86;32.52;99641.56;5031855;28;20419;-62
2022/06/28 10:49:46;;;;;;;2.85;1.85;;;;;;;23.93;31.89;99648.06;5031610;28;20064;-66
2022/06/28 10:52:15;;;;;;;2.72;1.73;;;;;;;23.98;31.61;99633.56;5030348;28;20128;-63
2022/06/28 10:55:04;;;;;;;5.87;1.90;;;;;;;24.14;31.87;99639.28;5030343;28;20042;-63
2022/06/28 10:57:34;;;;;;;9.48;1.58;;;;;;;24.08;32.21;99659.50;5027085;28;20487;-64
2022/06/28 11:00:08;;;;;;;4.55;1.88;;;;;;;23.95;33.02;99650.47;5031764;28;20183;-65
2022/06/28 11:02:49;;;;;;;3.50;1.77;;;;;;;23.90;31.56;99642.50;5030379;28;20037;-65
2022/06/28 11:05:18;;;;;;;3.08;1.70;;;;;;;23.92;32.65;99640.28;5031523;28;20488;-64
2022/06/28 11:07:59;;;;;;;2.05;1.58;;;;;;;23.99;31.52;99638.66;4997598;28;20407;-64
2022/06/28 11:10:29;;;;;;;2.30;1.30;;;;;;;23.95;30.66;99643.13;5030023;28;20354;-64
2022/06/28 11:13:18;;;;;;;8.43;1.92;;;;;;;23.96;30.30;99647.41;5030302;28;20076;-64
2022/06/28 11:15:44;;;;;;;4.27;1.70;;;;;;;23.93;28.89;99641.84;5031677;28;20069;-64
2022/06/28 11:18:18;;;;;;;1.48;1.38;;;;;;;24.00;29.63;99656.50;5031063;28;20041;-65
2022/06/28 11:20:44;;;;;;;1.40;1.30;;;;;;;24.00;28.70;99629.44;5029761;28;20132;-65
2022/06/28 11:23:24;;;;;;;4.78;1.50;;;;;;;24.10;29.41;99638.34;5031749;28;20041;-64
2022/06/28 11:28:53;;;;;;;2.08;1.63;;;;;;;24.10;28.56;99639.13;5016408;28;20060;-63
2022/06/28 11:31:20;;;;;;;1.33;1.23;;;;;;;24.06;28.66;99642.78;5029881;28;20056;-65
2022/06/28 11:33:48;;;;;;;5.35;2.55;;;;;;;24.07;29.46;99642.47;5029847;28;20132;-62
2022/06/28 11:36:30;;;;;;;3.58;1.45;;;;;;;24.06;29.44;99654.44;5030077;28;20553;-63
2022/06/28 11:39:18;;;;;;;3.90;1.85;;;;;;;23.95;30.16;99643.13;5035429;28;20042;-63
2022/06/28 11:41:48;;;;;;;3.30;1.58;;;;;;;24.01;29.39;99657.31;5035380;28;20041;-63
2022/06/28 11:44:15;;;;;;;3.08;1.98;;;;;;;24.03;28.95;99646.91;5033652;28;20092;-65
2022/06/28 11:46:41;;;;;;;3.47;1.83;;;;;;;24.03;29.00;99650.44;5016666;28;20054;-64
2022/06/28 11:49:08;;;;;;;3.25;1.45;;;;;;;24.01;27.82;99649.19;5017139;28;20052;-64
2022/06/28 11:51:34;;;;;;;2.70;1.35;;;;;;;24.00;27.68;99648.38;5016990;28;20052;-64
2022/06/28 11:54:06;;;;;;;3.55;1.80;;;;;;;23.93;28.77;99642.66;5035061;28;20303;-63